createdAt,value
2022-08-26T00:00:20.202Z,100.00
2022-08-26T00:02:48.660Z,100.00
2022-08-26T00:05:18.720Z,100.00
2022-08-26T00:07:47.640Z,100.00
2022-08-26T00:10:16.453Z,100.00
2022-08-26T00:12:45.941Z,100.00
2022-08-26T00:15:18.081Z,100.00
2022-08-26T00:17:47.036Z,100.00
2022-08-26T00:20:20.726Z,100.00
2022-08-26T00:22:49.272Z,100.00
2022-08-26T00:25:18.207Z,100.00
2022-08-26T00:27:47.969Z,100.00
2022-08-26T00:30:22.821Z,100.00
2022-08-26T00:32:53.064Z,100.00
2022-08-26T00:35:24.239Z,100.00
2022-08-26T00:37:55.822Z,100.00
2022-08-26T00:40:27.456Z,100.00
2022-08-26T00:42:56.161Z,100.00
2022-08-26T00:45:25.280Z,96.66
2022-08-26T00:47:57.604Z,94.09
2022-08-26T00:50:32.949Z,96.84
2022-08-26T00:53:03.543Z,100.00
2022-08-26T00:55:37.926Z,100.00
2022-08-26T00:58:08.739Z,100.00
2022-08-26T01:00:37.501Z,100.00
2022-08-26T01:03:06.154Z,100.00
2022-08-26T01:05:42.312Z,100.00
2022-08-26T01:08:11.258Z,100.00
2022-08-26T01:10:40.550Z,100.00
2022-08-26T01:13:11.472Z,100.00
2022-08-26T01:15:45.008Z,100.00
2022-08-26T01:18:14.751Z,100.00
2022-08-26T01:20:57.697Z,100.00
2022-08-26T01:23:30.218Z,100.00
2022-08-26T01:26:02.182Z,100.00
2022-08-26T01:28:33.509Z,100.00
2022-08-26T01:31:05.323Z,100.00
2022-08-26T01:33:42.376Z,100.00
2022-08-26T01:36:12.377Z,100.00
2022-08-26T01:38:43.318Z,100.00
2022-08-26T01:41:19.807Z,100.00
2022-08-26T01:43:57.884Z,100.00
2022-08-26T01:46:29.633Z,100.00
2022-08-26T01:49:01.641Z,100.00
2022-08-26T01:51:31.992Z,100.00
2022-08-26T01:54:02.109Z,100.00
2022-08-26T01:56:33.097Z,100.00
2022-08-26T01:59:04.212Z,100.00
2022-08-26T02:01:33.360Z,100.00
2022-08-26T02:04:09.673Z,100.00
2022-08-26T02:06:39.959Z,100.00
2022-08-26T02:09:10.469Z,100.00
2022-08-26T02:11:39.953Z,100.00
2022-08-26T02:14:13.426Z,100.00
2022-08-26T02:16:44.459Z,100.00
2022-08-26T02:19:17.201Z,100.00
2022-08-26T02:21:51.209Z,100.00
2022-08-26T02:24:24.159Z,100.00
2022-08-26T02:26:56.246Z,100.00
2022-08-26T02:29:28.418Z,100.00
2022-08-26T02:31:56.886Z,100.00
2022-08-26T02:34:31.371Z,100.00
2022-08-26T02:37:00.786Z,100.00
2022-08-26T02:39:31.656Z,100.00
2022-08-26T02:42:00.430Z,100.00
2022-08-26T02:44:29.217Z,100.00
2022-08-26T02:46:57.600Z,100.00
2022-08-26T02:49:27.801Z,100.00
2022-08-26T02:51:56.439Z,100.00
2022-08-26T02:54:25.315Z,100.00
2022-08-26T02:56:55.639Z,100.00
2022-08-26T02:59:24.363Z,100.00
2022-08-26T03:01:56.007Z,100.00
2022-08-26T03:04:25.761Z,100.00
2022-08-26T03:06:55.589Z,100.00
2022-08-26T03:09:24.572Z,100.00
2022-08-26T03:11:55.576Z,100.00
2022-08-26T03:14:24.657Z,100.00
2022-08-26T03:16:54.566Z,100.00
2022-08-26T03:19:25.149Z,100.00
2022-08-26T03:21:58.047Z,100.00
2022-08-26T03:24:26.983Z,100.00
2022-08-26T03:26:56.860Z,100.00
2022-08-26T03:29:43.156Z,100.00
2022-08-26T03:32:11.740Z,100.00
2022-08-26T03:34:40.141Z,100.00
2022-08-26T03:37:08.557Z,100.00
2022-08-26T03:39:37.151Z,100.00
2022-08-26T03:42:07.274Z,100.00
2022-08-26T03:44:35.974Z,100.00
2022-08-26T03:47:09.110Z,100.00
2022-08-26T03:49:37.483Z,100.00
2022-08-26T03:52:06.977Z,100.00
2022-08-26T03:54:35.853Z,100.00
2022-08-26T03:57:04.340Z,97.92
2022-08-26T03:59:34.993Z,100.00
2022-08-26T04:02:03.457Z,100.00
2022-08-26T04:04:38.097Z,100.00
2022-08-26T04:07:06.573Z,100.00
2022-08-26T04:09:36.486Z,98.39
2022-08-26T04:12:05.740Z,100.00
2022-08-26T04:14:37.759Z,100.00
2022-08-26T04:17:07.661Z,100.00
2022-08-26T04:19:36.064Z,99.36
2022-08-26T04:22:04.420Z,98.05
2022-08-26T04:24:32.991Z,96.60
2022-08-26T04:27:02.694Z,100.00
2022-08-26T04:29:32.162Z,100.00
2022-08-26T04:32:03.139Z,95.55
2022-08-26T04:34:33.025Z,97.50
2022-08-26T04:37:02.679Z,99.05
2022-08-26T04:39:31.081Z,100.00
2022-08-26T04:42:01.766Z,100.00
2022-08-26T04:44:31.959Z,98.96
2022-08-26T04:47:01.260Z,98.49
2022-08-26T04:49:35.327Z,96.41
2022-08-26T04:52:05.284Z,92.96
2022-08-26T04:54:33.700Z,92.23
2022-08-26T04:57:02.603Z,96.95
2022-08-26T04:59:31.045Z,91.99
2022-08-26T05:02:01.145Z,96.27
2022-08-26T05:04:30.381Z,99.45
2022-08-26T05:07:02.301Z,98.52
2022-08-26T05:09:31.600Z,95.73
2022-08-26T05:12:00.067Z,97.74
2022-08-26T05:14:28.427Z,93.63
2022-08-26T05:16:57.052Z,99.88
2022-08-26T05:19:27.845Z,99.78
2022-08-26T05:21:56.543Z,100.00
2022-08-26T05:24:26.425Z,100.00
2022-08-26T05:26:56.535Z,99.34
2022-08-26T05:29:25.256Z,97.72
2022-08-26T05:31:55.991Z,94.43
2022-08-26T05:34:25.836Z,94.08
2022-08-26T05:36:58.853Z,95.35
2022-08-26T05:39:28.606Z,82.87
2022-08-26T05:41:57.113Z,80.98
2022-08-26T05:44:25.584Z,78.04
2022-08-26T05:46:54.147Z,78.63
2022-08-26T05:49:22.596Z,85.88
2022-08-26T05:51:54.909Z,83.43
2022-08-26T05:54:23.278Z,80.37
2022-08-26T05:56:53.648Z,74.63
2022-08-26T05:59:24.625Z,78.81
2022-08-26T06:01:54.835Z,78.58
2022-08-26T06:04:27.565Z,78.08
2022-08-26T06:06:58.670Z,80.06
2022-08-26T06:09:27.931Z,88.39
2022-08-26T06:11:58.981Z,95.60
2022-08-26T06:14:27.407Z,96.30
2022-08-26T06:16:55.901Z,90.29
2022-08-26T06:19:24.389Z,87.88
2022-08-26T06:21:55.004Z,83.67
2022-08-26T06:24:41.136Z,79.93
2022-08-26T06:27:15.176Z,87.83
2022-08-26T06:29:43.856Z,84.47
2022-08-26T06:32:12.826Z,80.59
2022-08-26T06:34:43.531Z,81.38
2022-08-26T06:37:11.943Z,78.11
2022-08-26T06:39:41.345Z,71.44
2022-08-26T06:42:11.912Z,71.63
2022-08-26T06:44:41.589Z,68.26
2022-08-26T06:47:13.315Z,74.23
2022-08-26T06:49:41.823Z,67.93
2022-08-26T06:52:12.712Z,62.42
2022-08-26T06:54:44.278Z,55.72
2022-08-26T06:57:14.393Z,61.10
2022-08-26T06:59:45.233Z,57.51
2022-08-26T07:02:13.886Z,61.50
2022-08-26T07:04:42.603Z,59.31
2022-08-26T07:07:14.406Z,63.57
2022-08-26T07:09:42.826Z,65.52
2022-08-26T07:12:11.173Z,61.04
2022-08-26T07:14:41.037Z,64.09
2022-08-26T07:17:15.980Z,61.03
2022-08-26T07:19:44.873Z,52.04
2022-08-26T07:22:14.254Z,55.08
2022-08-26T07:24:42.748Z,59.88
2022-08-26T07:27:15.321Z,59.64
2022-08-26T07:29:45.481Z,64.87
2022-08-26T07:32:16.164Z,64.51
2022-08-26T07:34:44.868Z,63.30
2022-08-26T07:37:13.463Z,61.36
2022-08-26T07:39:43.140Z,58.36
2022-08-26T07:42:14.413Z,61.73
2022-08-26T07:44:45.026Z,60.75
2022-08-26T07:47:25.508Z,61.48
2022-08-26T07:49:56.362Z,59.81
2022-08-26T07:52:27.066Z,59.15
2022-08-26T07:54:56.757Z,60.69
2022-08-26T07:57:25.365Z,57.53
2022-08-26T07:59:56.007Z,59.89
2022-08-26T08:02:26.553Z,59.00
2022-08-26T08:04:55.281Z,59.75
2022-08-26T08:07:38.526Z,56.55
2022-08-26T08:10:14.733Z,58.34
2022-08-26T08:12:43.975Z,55.67
2022-08-26T08:15:14.727Z,59.58
2022-08-26T08:17:44.215Z,59.58
2022-08-26T08:20:14.214Z,61.24
2022-08-26T08:22:43.113Z,61.19
2022-08-26T08:25:12.634Z,56.15
2022-08-26T08:27:43.325Z,56.96
2022-08-26T08:30:14.047Z,55.45
2022-08-26T08:32:43.765Z,57.69
2022-08-26T08:35:14.196Z,53.86
2022-08-26T08:37:43.815Z,53.32
2022-08-26T08:40:18.581Z,53.02
2022-08-26T08:45:36.301Z,51.29
2022-08-26T08:48:08.234Z,52.94
2022-08-26T08:50:44.883Z,48.88
2022-08-26T08:53:17.699Z,50.09
2022-08-26T08:56:02.252Z,50.63
2022-08-26T08:58:43.815Z,50.52
2022-08-26T09:01:24.312Z,50.13
2022-08-26T09:04:05.156Z,50.87
2022-08-26T09:06:33.513Z,55.19
2022-08-26T09:09:04.176Z,54.59
2022-08-26T09:11:32.695Z,57.63
2022-08-26T09:14:01.297Z,57.85
2022-08-26T09:16:38.859Z,59.05
2022-08-26T09:19:15.552Z,54.98
2022-08-26T09:21:47.805Z,55.41
2022-08-26T09:24:22.314Z,54.73
2022-08-26T09:26:59.211Z,56.00
2022-08-26T09:29:30.278Z,59.40
2022-08-26T09:35:00.107Z,53.85
2022-08-26T09:40:23.056Z,55.77
2022-08-26T09:43:08.533Z,54.30
2022-08-26T09:45:40.555Z,50.98
2022-08-26T09:48:31.559Z,46.86
2022-08-26T09:51:03.784Z,44.89
2022-08-26T09:53:36.765Z,42.53
2022-08-26T09:56:25.467Z,39.46
2022-08-26T09:58:57.580Z,39.61
2022-08-26T10:01:33.754Z,41.22
2022-08-26T10:04:09.934Z,34.97
2022-08-26T10:06:44.288Z,33.74
2022-08-26T10:09:17.378Z,32.18
2022-08-26T10:11:51.967Z,32.79
2022-08-26T10:14:25.698Z,31.93
2022-08-26T10:16:59.707Z,34.48
2022-08-26T10:19:48.285Z,35.34
2022-08-26T10:22:29.153Z,33.23
2022-08-26T10:25:00.586Z,36.39
2022-08-26T10:27:51.095Z,37.16
2022-08-26T10:30:25.288Z,40.11
2022-08-26T10:32:59.202Z,36.19
2022-08-26T10:35:28.947Z,37.47
2022-08-26T10:38:04.449Z,36.02
2022-08-26T10:40:46.406Z,35.86
2022-08-26T10:43:22.687Z,36.21
2022-08-26T10:45:56.328Z,36.69
2022-08-26T10:48:35.833Z,36.22
2022-08-26T10:51:05.738Z,39.77
2022-08-26T10:53:51.618Z,39.42
2022-08-26T10:56:31.100Z,38.75
2022-08-26T10:59:12.486Z,42.99
2022-08-26T11:01:50.996Z,44.85
2022-08-26T11:04:48.428Z,45.61
2022-08-26T11:07:35.547Z,44.95
2022-08-26T11:10:08.362Z,44.05
2022-08-26T11:12:56.297Z,46.50
2022-08-26T11:16:08.384Z,44.47
2022-08-26T11:18:48.829Z,45.73
2022-08-26T11:22:06.079Z,45.11
2022-08-26T11:25:11.535Z,58.34
2022-08-26T11:28:05.655Z,60.65
2022-08-26T11:30:56.931Z,63.20
2022-08-26T11:34:00.128Z,70.06
2022-08-26T11:36:59.186Z,81.18
2022-08-26T11:39:31.882Z,65.86
2022-08-26T11:42:21.634Z,73.60
2022-08-26T11:44:51.783Z,82.07
2022-08-26T11:47:29.568Z,100.00
2022-08-26T11:50:14.448Z,100.00
2022-08-26T11:52:51.482Z,100.00
2022-08-26T11:55:20.310Z,100.00
2022-08-26T11:57:55.877Z,76.12
2022-08-26T12:00:33.453Z,64.96
2022-08-26T12:03:07.555Z,58.26
2022-08-26T12:05:40.091Z,47.56
2022-08-26T12:08:11.204Z,47.10
2022-08-26T12:10:40.588Z,44.86
2022-08-26T12:13:10.200Z,59.76
2022-08-26T12:15:40.338Z,63.72
2022-08-26T12:18:29.195Z,53.64
2022-08-26T12:21:00.855Z,51.54
2022-08-26T12:23:40.693Z,53.54
2022-08-26T12:26:13.063Z,51.82
2022-08-26T12:28:47.175Z,47.22
2022-08-26T12:31:24.664Z,48.03
2022-08-26T12:33:54.232Z,46.60
2022-08-26T12:36:27.605Z,46.76
2022-08-26T12:38:58.578Z,48.06
2022-08-26T12:41:51.227Z,50.83
2022-08-26T12:44:42.704Z,45.04
2022-08-26T12:47:35.224Z,50.21
2022-08-26T12:50:19.372Z,47.06
2022-08-26T12:52:58.348Z,51.03
2022-08-26T12:55:36.678Z,56.76
2022-08-26T12:58:14.884Z,57.92
2022-08-26T13:00:45.195Z,61.34
2022-08-26T13:03:44.666Z,66.16
2022-08-26T13:06:30.157Z,61.02
2022-08-26T13:09:00.966Z,64.12
2022-08-26T13:11:32.192Z,64.31
2022-08-26T13:14:03.181Z,72.15
2022-08-26T13:16:36.500Z,69.43
2022-08-26T13:19:10.474Z,58.14
2022-08-26T13:21:44.931Z,64.83
2022-08-26T13:27:03.232Z,62.14
2022-08-26T13:29:31.719Z,61.17
2022-08-26T13:32:00.751Z,52.50
2022-08-26T13:34:31.664Z,55.68
2022-08-26T13:37:00.905Z,61.61
2022-08-26T13:39:29.356Z,64.66
2022-08-26T13:41:57.803Z,63.95
2022-08-26T13:44:26.299Z,69.50
2022-08-26T13:46:54.798Z,64.25
2022-08-26T13:49:23.402Z,69.40
2022-08-26T13:51:53.229Z,65.55
2022-08-26T13:54:22.084Z,60.33
2022-08-26T13:56:50.455Z,65.05
2022-08-26T13:59:19.562Z,60.96
2022-08-26T14:01:48.155Z,63.17
2022-08-26T14:04:16.800Z,60.25
2022-08-26T14:06:53.277Z,65.01
2022-08-26T14:09:21.713Z,57.73
2022-08-26T14:11:53.752Z,55.29
2022-08-26T14:14:23.324Z,58.08
2022-08-26T14:16:59.326Z,63.34
2022-08-26T14:19:29.696Z,59.25
2022-08-26T14:22:00.823Z,58.43
2022-08-26T14:24:29.788Z,61.74
2022-08-26T14:26:58.689Z,64.00
2022-08-26T14:29:27.134Z,55.23
2022-08-26T14:31:57.920Z,50.36
2022-08-26T14:34:26.798Z,51.74
2022-08-26T14:36:55.246Z,51.76
2022-08-26T14:39:25.253Z,49.21
2022-08-26T14:41:57.267Z,42.66
2022-08-26T14:44:29.241Z,48.24
2022-08-26T14:46:57.917Z,41.17
2022-08-26T14:49:27.426Z,49.00
2022-08-26T14:51:56.594Z,50.35
2022-08-26T14:54:25.426Z,53.64
2022-08-26T14:56:56.815Z,58.27
2022-08-26T14:59:27.932Z,58.73
2022-08-26T15:01:57.012Z,58.78
2022-08-26T15:04:26.439Z,54.55
2022-08-26T15:06:56.829Z,55.88
2022-08-26T15:09:27.236Z,54.83
2022-08-26T15:11:56.264Z,59.85
2022-08-26T15:14:26.026Z,58.14
2022-08-26T15:16:58.549Z,53.99
2022-08-26T15:19:28.145Z,57.04
2022-08-26T15:21:56.806Z,56.40
2022-08-26T15:24:28.972Z,60.01
2022-08-26T15:26:57.399Z,65.04
2022-08-26T15:29:25.769Z,61.19
2022-08-26T15:31:57.396Z,70.17
2022-08-26T15:34:27.032Z,70.93
2022-08-26T15:36:55.733Z,70.89
2022-08-26T15:39:24.191Z,70.49
2022-08-26T15:41:56.187Z,72.11
2022-08-26T15:44:24.830Z,77.88
2022-08-26T15:46:58.293Z,73.40
2022-08-26T15:49:27.801Z,79.17
2022-08-26T15:51:56.268Z,72.34
2022-08-26T15:54:25.204Z,75.30
2022-08-26T15:56:59.461Z,72.81
2022-08-26T15:59:28.798Z,69.59
2022-08-26T16:01:58.276Z,75.46
2022-08-26T16:04:27.641Z,70.98
2022-08-26T16:06:56.664Z,67.86
2022-08-26T16:09:27.338Z,73.10
2022-08-26T16:11:58.582Z,69.15
2022-08-26T16:14:27.589Z,72.86
2022-08-26T16:16:56.627Z,75.67
2022-08-26T16:19:24.976Z,71.74
2022-08-26T16:21:53.450Z,71.40
2022-08-26T16:24:25.906Z,71.80
2022-08-26T16:26:57.653Z,70.93
2022-08-26T16:29:26.146Z,72.89
2022-08-26T16:31:54.952Z,77.18
2022-08-26T16:34:24.152Z,75.34
2022-08-26T16:36:52.578Z,73.60
2022-08-26T16:39:21.025Z,69.83
2022-08-26T16:41:49.371Z,68.35
2022-08-26T16:44:19.309Z,77.62
2022-08-26T16:46:48.102Z,80.96
2022-08-26T16:49:16.792Z,89.16
2022-08-26T16:51:45.361Z,89.02
2022-08-26T16:54:17.784Z,97.13
2022-08-26T16:56:50.963Z,97.73
2022-08-26T16:59:22.218Z,100.00
2022-08-26T17:01:50.801Z,100.00
2022-08-26T17:04:19.953Z,100.00
2022-08-26T17:06:48.508Z,100.00
2022-08-26T17:09:16.894Z,100.00
2022-08-26T17:11:45.618Z,100.00
2022-08-26T17:14:15.298Z,100.00
2022-08-26T17:16:45.182Z,100.00
2022-08-26T17:19:13.936Z,100.00
2022-08-26T17:21:42.456Z,100.00
2022-08-26T17:24:10.836Z,100.00
2022-08-26T17:26:39.340Z,100.00
2022-08-26T17:29:08.129Z,100.00
2022-08-26T17:31:36.549Z,100.00
2022-08-26T17:34:06.711Z,100.00
2022-08-26T17:36:35.245Z,100.00
2022-08-26T17:39:03.757Z,100.00
2022-08-26T17:41:32.178Z,100.00
2022-08-26T17:44:00.560Z,100.00
2022-08-26T17:46:29.349Z,100.00
2022-08-26T17:48:58.284Z,100.00
2022-08-26T17:51:28.102Z,100.00
2022-08-26T17:53:57.181Z,100.00
2022-08-26T17:56:30.935Z,100.00
2022-08-26T17:59:02.474Z,100.00
2022-08-26T18:01:33.074Z,100.00
2022-08-26T18:04:05.403Z,100.00
2022-08-26T18:06:36.836Z,100.00
2022-08-26T18:09:05.345Z,100.00
2022-08-26T18:11:33.846Z,100.00
2022-08-26T18:14:02.733Z,100.00
2022-08-26T18:16:38.412Z,100.00
2022-08-26T18:19:07.566Z,100.00
2022-08-26T18:21:37.765Z,100.00
2022-08-26T18:24:09.123Z,100.00
2022-08-26T18:26:41.290Z,100.00
2022-08-26T18:29:10.843Z,100.00
2022-08-26T18:31:39.229Z,100.00
2022-08-26T18:34:07.770Z,100.00
2022-08-26T18:36:39.900Z,100.00
2022-08-26T18:39:09.321Z,100.00
2022-08-26T18:41:42.537Z,100.00
2022-08-26T18:44:13.657Z,100.00
2022-08-26T18:46:43.104Z,100.00
2022-08-26T18:49:12.928Z,100.00
2022-08-26T18:51:43.620Z,100.00
2022-08-26T18:54:12.695Z,100.00
2022-08-26T18:56:42.500Z,100.00
2022-08-26T18:59:11.854Z,100.00
2022-08-26T19:01:41.525Z,100.00
2022-08-26T19:04:15.368Z,100.00
2022-08-26T19:06:47.641Z,100.00
2022-08-26T19:09:17.806Z,100.00
2022-08-26T19:11:47.411Z,100.00
2022-08-26T19:14:18.572Z,100.00
2022-08-26T19:16:49.124Z,100.00
2022-08-26T19:19:18.299Z,100.00
2022-08-26T19:21:49.375Z,100.00
2022-08-26T19:24:19.801Z,100.00
2022-08-26T19:26:50.421Z,100.00
2022-08-26T19:29:28.341Z,100.00
2022-08-26T19:31:57.000Z,100.00
2022-08-26T19:34:25.729Z,100.00
2022-08-26T19:36:57.258Z,100.00
2022-08-26T19:39:26.211Z,100.00
2022-08-26T19:41:54.963Z,100.00
2022-08-26T19:44:41.959Z,100.00
2022-08-26T19:47:18.605Z,100.00
2022-08-26T19:49:47.098Z,100.00
2022-08-26T19:52:16.949Z,100.00
2022-08-26T19:54:45.743Z,100.00
2022-08-26T19:57:14.415Z,100.00
2022-08-26T19:59:43.609Z,100.00
2022-08-26T20:02:12.582Z,100.00
2022-08-26T20:04:41.905Z,100.00
2022-08-26T20:07:14.245Z,100.00
2022-08-26T20:09:50.920Z,100.00
2022-08-26T20:12:20.025Z,100.00
2022-08-26T20:14:48.625Z,100.00
2022-08-26T20:17:17.383Z,100.00
2022-08-26T20:20:03.037Z,100.00
2022-08-26T20:22:31.794Z,100.00
2022-08-26T20:25:01.849Z,100.00
2022-08-26T20:27:37.974Z,100.00
2022-08-26T20:30:09.328Z,100.00
2022-08-26T20:32:38.220Z,100.00
2022-08-26T20:35:09.130Z,100.00
2022-08-26T20:37:38.992Z,100.00
2022-08-26T20:40:11.121Z,100.00
2022-08-26T20:42:39.761Z,100.00
2022-08-26T20:45:09.828Z,100.00
2022-08-26T20:47:38.259Z,100.00
2022-08-26T20:50:08.227Z,100.00
2022-08-26T20:52:36.743Z,100.00
2022-08-26T20:55:05.837Z,100.00
2022-08-26T20:57:35.601Z,100.00
2022-08-26T21:00:04.713Z,100.00
2022-08-26T21:02:33.155Z,100.00
2022-08-26T21:05:01.761Z,100.00
2022-08-26T21:07:30.378Z,100.00
2022-08-26T21:09:58.706Z,100.00
2022-08-26T21:12:28.162Z,100.00
2022-08-26T21:14:58.152Z,100.00
2022-08-26T21:17:27.101Z,100.00
2022-08-26T21:19:55.695Z,100.00
2022-08-26T21:22:24.205Z,100.00
2022-08-26T21:24:52.680Z,100.00
2022-08-26T21:27:26.143Z,100.00
2022-08-26T21:29:55.210Z,100.00
2022-08-26T21:32:25.023Z,100.00
2022-08-26T21:34:56.181Z,100.00
2022-08-26T21:37:25.205Z,100.00
2022-08-26T21:39:55.005Z,100.00
2022-08-26T21:42:24.727Z,100.00
2022-08-26T21:44:53.688Z,100.00
2022-08-26T21:47:22.292Z,100.00
2022-08-26T21:49:52.623Z,100.00
2022-08-26T21:52:21.420Z,100.00
2022-08-26T21:54:49.934Z,100.00
2022-08-26T21:57:18.690Z,100.00
2022-08-26T21:59:47.239Z,100.00
2022-08-26T22:02:15.826Z,100.00
2022-08-26T22:04:48.607Z,100.00
2022-08-26T22:07:20.101Z,100.00
2022-08-26T22:09:48.786Z,100.00
2022-08-26T22:12:18.541Z,100.00
2022-08-26T22:14:47.179Z,100.00
2022-08-26T22:17:16.054Z,100.00
2022-08-26T22:19:45.940Z,100.00
2022-08-26T22:22:15.697Z,100.00
2022-08-26T22:24:45.412Z,100.00
2022-08-26T22:27:15.234Z,100.00
2022-08-26T22:29:43.867Z,100.00
2022-08-26T22:32:12.336Z,100.00
2022-08-26T22:34:41.991Z,100.00
2022-08-26T22:37:10.355Z,100.00
2022-08-26T22:39:39.126Z,100.00
2022-08-26T22:42:09.279Z,100.00
2022-08-26T22:44:37.797Z,100.00
2022-08-26T22:47:06.572Z,100.00
2022-08-26T22:49:35.033Z,100.00
2022-08-26T22:52:03.874Z,100.00
2022-08-26T22:54:32.484Z,100.00
2022-08-26T22:57:00.922Z,100.00
2022-08-26T22:59:30.785Z,100.00
2022-08-26T23:01:59.141Z,100.00
2022-08-26T23:04:27.592Z,100.00
2022-08-26T23:06:56.013Z,100.00
2022-08-26T23:09:24.384Z,100.00
2022-08-26T23:11:56.047Z,100.00
2022-08-26T23:14:25.650Z,100.00
2022-08-26T23:16:55.574Z,100.00
2022-08-26T23:19:24.445Z,100.00
2022-08-26T23:21:53.130Z,100.00
2022-08-26T23:24:22.209Z,100.00
2022-08-26T23:26:50.631Z,100.00
2022-08-26T23:29:19.088Z,100.00
2022-08-26T23:31:47.537Z,100.00
2022-08-26T23:34:49.473Z,100.00
2022-08-26T23:37:19.690Z,100.00
2022-08-26T23:39:49.751Z,100.00
2022-08-26T23:42:18.199Z,100.00
2022-08-26T23:44:46.764Z,100.00
2022-08-26T23:47:15.672Z,100.00
2022-08-26T23:49:45.460Z,100.00
2022-08-26T23:52:31.157Z,100.00
2022-08-26T23:54:59.513Z,100.00
2022-08-26T23:57:27.944Z,100.00
2022-08-26T23:59:56.273Z,100.00
